createdAt,value
2023-02-23T00:01:15.829Z,2.30
2023-02-23T00:03:43.559Z,3.88
2023-02-23T00:06:11.299Z,2.83
2023-02-23T00:08:38.867Z,2.50
2023-02-23T00:11:07.094Z,3.33
2023-02-23T00:13:37.442Z,3.60
2023-02-23T00:16:05.677Z,3.03
2023-02-23T00:18:41.138Z,3.25
2023-02-23T00:21:08.387Z,3.67
2023-02-23T00:23:38.731Z,2.65
2023-02-23T00:26:05.942Z,2.22
2023-02-23T00:28:33.092Z,4.57
2023-02-23T00:31:02.542Z,3.05
2023-02-23T00:33:34.733Z,3.05
2023-02-23T00:36:05.667Z,4.35
2023-02-23T00:38:36.125Z,4.07
2023-02-23T00:41:11.664Z,3.28
2023-02-23T00:43:47.700Z,2.58
2023-02-23T00:46:18.638Z,5.80
2023-02-23T00:48:46.522Z,2.88
2023-02-23T00:51:13.985Z,4.30
2023-02-23T00:53:41.483Z,1.50
2023-02-23T00:56:09.692Z,2.60
2023-02-23T00:58:36.848Z,3.05
2023-02-23T01:01:07.021Z,2.85
2023-02-23T01:03:34.244Z,2.83
2023-02-23T01:06:05.376Z,2.88
2023-02-23T01:08:36.295Z,3.35
2023-02-23T01:11:07.173Z,2.85
2023-02-23T01:13:34.317Z,1.73
2023-02-23T01:16:02.072Z,1.83
2023-02-23T01:18:29.294Z,3.17
2023-02-23T01:20:57.103Z,2.92
2023-02-23T01:23:24.440Z,2.80
2023-02-23T01:25:51.565Z,4.10
2023-02-23T01:28:18.638Z,2.25
2023-02-23T01:30:45.929Z,3.13
2023-02-23T01:33:14.016Z,1.98
2023-02-23T01:35:41.128Z,1.58
2023-02-23T01:38:08.201Z,3.45
2023-02-23T01:40:37.412Z,3.03
2023-02-23T01:43:12.727Z,2.25
2023-02-23T01:45:40.761Z,2.45
2023-02-23T01:48:15.786Z,1.40
2023-02-23T01:51:03.353Z,4.85
2023-02-23T01:53:33.991Z,3.20
2023-02-23T01:56:12.306Z,3.47
2023-02-23T01:58:41.726Z,2.35
2023-02-23T02:01:08.882Z,3.33
2023-02-23T02:03:38.975Z,5.28
2023-02-23T02:06:09.675Z,3.13
2023-02-23T02:08:45.092Z,3.53
2023-02-23T02:11:26.292Z,2.55
2023-02-23T02:13:58.906Z,4.13
2023-02-23T02:16:32.204Z,2.30
2023-02-23T02:19:08.864Z,3.08
2023-02-23T02:21:47.013Z,3.70
2023-02-23T02:24:37.274Z,3.38
2023-02-23T02:27:14.446Z,2.67
2023-02-23T02:29:51.619Z,4.72
2023-02-23T02:32:27.926Z,2.15
2023-02-23T02:35:09.890Z,3.47
2023-02-23T02:38:06.662Z,2.55
2023-02-23T02:40:55.759Z,3.05
2023-02-23T02:43:25.716Z,4.43
2023-02-23T02:45:58.682Z,4.93
2023-02-23T02:48:44.498Z,3.05
2023-02-23T02:51:18.852Z,3.83
2023-02-23T02:53:50.121Z,4.78
2023-02-23T02:56:19.901Z,3.80
2023-02-23T02:58:50.079Z,2.67
2023-02-23T03:01:37.279Z,3.78
2023-02-23T03:04:43.253Z,3.80
2023-02-23T03:07:40.868Z,4.55
2023-02-23T03:10:32.786Z,3.72
2023-02-23T03:13:30.453Z,4.22
2023-02-23T03:16:22.373Z,4.72
2023-02-23T03:19:20.461Z,2.88
2023-02-23T03:22:12.287Z,3.85
2023-02-23T03:25:01.352Z,3.28
2023-02-23T03:27:47.359Z,3.55
2023-02-23T03:30:49.028Z,2.97
2023-02-23T03:33:37.451Z,3.65
2023-02-23T03:36:29.957Z,4.22
2023-02-23T03:39:22.790Z,4.70
2023-02-23T03:42:10.127Z,3.13
2023-02-23T03:44:58.937Z,3.70
2023-02-23T03:47:46.994Z,4.15
2023-02-23T03:50:44.696Z,3.47
2023-02-23T03:53:33.605Z,3.85
2023-02-23T03:56:20.723Z,2.85
2023-02-23T03:59:09.792Z,3.05
2023-02-23T04:01:55.902Z,1.90
2023-02-23T04:04:43.105Z,3.63
2023-02-23T04:07:30.535Z,3.60
2023-02-23T04:10:16.526Z,4.82
2023-02-23T04:13:05.446Z,1.63
2023-02-23T04:15:34.793Z,4.10
2023-02-23T04:18:04.047Z,3.55
2023-02-23T04:20:31.166Z,3.45
2023-02-23T04:22:58.499Z,2.97
2023-02-23T04:25:26.877Z,2.47
2023-02-23T04:27:56.927Z,4.97
2023-02-23T04:30:28.563Z,3.42
2023-02-23T04:32:56.301Z,4.65
2023-02-23T04:35:23.734Z,2.92
2023-02-23T04:37:51.009Z,3.70
2023-02-23T04:40:18.370Z,2.50
2023-02-23T04:42:45.459Z,2.78
2023-02-23T04:45:12.565Z,3.22
2023-02-23T04:47:39.682Z,6.53
2023-02-23T04:50:07.137Z,5.15
2023-02-23T04:52:35.085Z,2.83
2023-02-23T04:55:02.177Z,3.90
2023-02-23T04:57:29.266Z,3.28
2023-02-23T04:59:56.622Z,3.40
2023-02-23T05:02:24.386Z,3.55
2023-02-23T05:04:51.819Z,5.43
2023-02-23T05:07:18.999Z,6.47
2023-02-23T05:09:46.050Z,3.22
2023-02-23T05:12:13.211Z,2.72
2023-02-23T05:14:40.452Z,3.72
2023-02-23T05:17:08.826Z,4.68
2023-02-23T05:19:37.232Z,3.85
2023-02-23T05:22:04.752Z,3.75
2023-02-23T05:24:31.832Z,4.97
2023-02-23T05:26:59.081Z,4.63
2023-02-23T05:29:26.245Z,1.80
2023-02-23T05:31:53.499Z,3.78
2023-02-23T05:34:20.729Z,3.55
2023-02-23T05:36:47.867Z,3.03
2023-02-23T05:39:15.032Z,3.95
2023-02-23T05:41:42.190Z,3.95
2023-02-23T05:44:09.343Z,3.05
2023-02-23T05:46:36.705Z,3.38
2023-02-23T05:49:04.050Z,2.92
2023-02-23T05:51:32.429Z,2.40
2023-02-23T05:53:59.663Z,2.63
2023-02-23T05:56:26.977Z,4.45
2023-02-23T05:58:57.932Z,3.65
2023-02-23T06:01:25.672Z,3.85
2023-02-23T06:03:53.118Z,2.15
2023-02-23T06:06:20.554Z,3.00
2023-02-23T06:08:47.812Z,3.08
2023-02-23T06:11:14.958Z,2.67
2023-02-23T06:13:42.090Z,3.38
2023-02-23T06:16:09.300Z,2.47
2023-02-23T06:18:36.590Z,3.55
2023-02-23T06:21:04.705Z,1.98
2023-02-23T06:23:32.485Z,3.35
2023-02-23T06:26:00.169Z,2.10
2023-02-23T06:28:28.317Z,4.00
2023-02-23T06:30:58.808Z,3.20
2023-02-23T06:33:25.988Z,3.70
2023-02-23T06:35:54.723Z,2.85
2023-02-23T06:38:21.966Z,3.05
2023-02-23T06:40:49.137Z,3.05
2023-02-23T06:43:16.302Z,3.25
2023-02-23T06:45:43.925Z,4.25
2023-02-23T06:48:11.111Z,4.15
2023-02-23T06:50:38.390Z,2.90
2023-02-23T06:53:05.987Z,3.70
2023-02-23T06:55:33.201Z,4.50
2023-02-23T06:58:00.461Z,2.50
2023-02-23T07:00:27.703Z,2.05
2023-02-23T07:02:54.837Z,3.00
2023-02-23T07:05:22.060Z,4.43
2023-02-23T07:07:49.197Z,2.95
2023-02-23T07:10:16.382Z,2.97
2023-02-23T07:12:43.594Z,2.58
2023-02-23T07:15:11.198Z,4.28
2023-02-23T07:17:38.355Z,2.58
2023-02-23T07:20:05.708Z,5.07
2023-02-23T07:22:34.226Z,3.42
2023-02-23T07:25:01.351Z,2.33
2023-02-23T07:27:28.586Z,3.83
2023-02-23T07:29:55.789Z,3.42
2023-02-23T07:32:23.265Z,3.40
2023-02-23T07:34:52.772Z,2.50
2023-02-23T07:37:21.527Z,3.35
2023-02-23T07:39:48.754Z,2.90
2023-02-23T07:42:15.863Z,4.18
2023-02-23T07:44:42.986Z,3.50
2023-02-23T07:47:10.107Z,4.13
2023-02-23T07:49:37.230Z,1.65
2023-02-23T07:52:04.432Z,3.38
2023-02-23T07:54:31.790Z,3.15
2023-02-23T07:56:59.424Z,3.35
2023-02-23T07:59:26.605Z,2.25
2023-02-23T08:01:53.737Z,2.08
2023-02-23T08:04:22.263Z,1.55
2023-02-23T08:06:49.460Z,3.60
2023-02-23T08:09:16.555Z,3.05
2023-02-23T08:11:43.925Z,2.83
2023-02-23T08:14:11.156Z,1.77
2023-02-23T08:16:38.310Z,2.15
2023-02-23T08:19:08.095Z,3.15
2023-02-23T08:21:35.375Z,3.03
2023-02-23T08:24:02.463Z,2.72
2023-02-23T08:26:29.574Z,3.40
2023-02-23T08:28:56.782Z,3.08
2023-02-23T08:31:25.141Z,3.13
2023-02-23T08:33:52.653Z,2.85
2023-02-23T08:36:20.939Z,3.03
2023-02-23T08:38:48.256Z,4.97
2023-02-23T08:41:15.720Z,4.07
2023-02-23T08:43:44.151Z,3.33
2023-02-23T08:46:11.850Z,3.50
2023-02-23T08:48:40.388Z,2.38
2023-02-23T08:51:08.206Z,2.50
2023-02-23T08:53:35.326Z,4.63
2023-02-23T08:56:04.815Z,4.38
2023-02-23T08:58:32.782Z,4.40
2023-02-23T09:01:00.207Z,3.60
2023-02-23T09:03:30.322Z,3.50
2023-02-23T09:05:58.507Z,3.13
2023-02-23T09:08:25.823Z,3.85
2023-02-23T09:10:53.850Z,2.13
2023-02-23T09:13:21.062Z,4.43
2023-02-23T09:15:48.232Z,4.57
2023-02-23T09:18:15.504Z,3.83
2023-02-23T09:20:43.382Z,3.65
2023-02-23T09:23:11.015Z,3.88
2023-02-23T09:25:44.826Z,3.58
2023-02-23T09:28:13.097Z,1.58
2023-02-23T09:30:41.646Z,2.97
2023-02-23T09:33:09.434Z,3.63
2023-02-23T09:35:36.631Z,2.20
2023-02-23T09:38:04.754Z,4.38
2023-02-23T09:40:53.666Z,3.20
2023-02-23T09:43:33.486Z,4.40
2023-02-23T09:46:15.332Z,2.33
2023-02-23T09:48:43.242Z,3.10
2023-02-23T09:51:15.833Z,3.00
2023-02-23T09:53:51.928Z,2.75
2023-02-23T09:56:21.944Z,3.75
2023-02-23T09:58:49.583Z,2.97
2023-02-23T10:01:35.548Z,4.20
2023-02-23T10:04:11.368Z,3.42
2023-02-23T10:06:42.802Z,2.45
2023-02-23T10:09:09.960Z,3.65
2023-02-23T10:11:38.742Z,3.35
2023-02-23T10:14:25.537Z,3.15
2023-02-23T10:17:02.289Z,4.07
2023-02-23T10:19:35.518Z,3.78
2023-02-23T10:22:04.564Z,1.95
2023-02-23T10:24:35.788Z,3.60
2023-02-23T10:27:17.607Z,2.63
2023-02-23T10:29:53.480Z,2.67
2023-02-23T10:32:26.521Z,2.90
2023-02-23T10:34:56.757Z,3.65
2023-02-23T10:37:25.733Z,2.13
2023-02-23T10:39:53.374Z,3.08
2023-02-23T10:42:28.987Z,1.65
2023-02-23T10:44:57.013Z,2.15
2023-02-23T10:47:26.694Z,2.65
2023-02-23T10:49:55.187Z,2.83
2023-02-23T10:52:24.345Z,3.40
2023-02-23T10:54:52.416Z,2.42
2023-02-23T10:57:33.711Z,3.00
2023-02-23T11:00:13.442Z,3.33
2023-02-23T11:02:42.665Z,2.80
2023-02-23T11:05:28.985Z,3.75
2023-02-23T11:08:15.137Z,2.10
2023-02-23T11:10:42.475Z,2.25
2023-02-23T11:13:23.299Z,3.58
2023-02-23T11:15:58.409Z,2.63
2023-02-23T11:18:26.578Z,3.38
2023-02-23T11:20:54.759Z,2.88
2023-02-23T11:23:29.288Z,1.63
2023-02-23T11:26:00.190Z,3.70
2023-02-23T11:28:41.548Z,2.40
2023-02-23T11:31:28.950Z,2.80
2023-02-23T11:33:56.837Z,2.28
2023-02-23T11:36:29.756Z,2.85
2023-02-23T11:39:08.490Z,2.63
2023-02-23T11:41:37.214Z,2.60
2023-02-23T11:44:06.216Z,1.30
2023-02-23T11:46:36.956Z,1.58
2023-02-23T11:49:08.497Z,2.00
2023-02-23T11:51:37.575Z,2.40
2023-02-23T11:54:06.042Z,1.92
2023-02-23T11:56:34.932Z,2.22
2023-02-23T11:59:03.883Z,1.92
2023-02-23T12:01:45.533Z,1.33
2023-02-23T12:04:30.915Z,1.20
2023-02-23T12:07:16.659Z,2.53
2023-02-23T12:09:45.897Z,2.67
2023-02-23T12:12:14.930Z,2.65
2023-02-23T12:14:49.782Z,2.38
2023-02-23T12:17:19.532Z,1.88
2023-02-23T12:19:53.829Z,2.30
2023-02-23T12:22:24.245Z,3.65
2023-02-23T12:24:57.184Z,2.20
2023-02-23T12:27:24.248Z,2.03
2023-02-23T12:30:13.194Z,1.70
2023-02-23T12:32:43.492Z,1.60
2023-02-23T12:35:31.375Z,2.47
2023-02-23T12:37:58.560Z,1.65
2023-02-23T12:40:28.168Z,2.80
2023-02-23T12:43:13.978Z,1.45
2023-02-23T12:45:52.671Z,1.35
2023-02-23T12:48:40.236Z,1.50
2023-02-23T12:51:16.305Z,3.00
2023-02-23T12:53:45.383Z,3.03
2023-02-23T12:56:28.118Z,2.45
2023-02-23T12:59:05.270Z,2.40
2023-02-23T13:01:35.270Z,1.35
2023-02-23T13:04:08.600Z,2.70
2023-02-23T13:06:54.308Z,2.25
2023-02-23T13:09:30.716Z,1.95
2023-02-23T13:11:58.460Z,1.45
2023-02-23T13:14:34.901Z,2.03
2023-02-23T13:17:06.677Z,1.63
2023-02-23T13:19:42.512Z,2.47
2023-02-23T13:22:25.116Z,1.70
2023-02-23T13:24:53.971Z,2.70
2023-02-23T13:27:25.596Z,2.92
2023-02-23T13:29:55.008Z,2.28
2023-02-23T13:32:24.105Z,1.80
2023-02-23T13:34:52.589Z,2.20
2023-02-23T13:37:23.176Z,1.30
2023-02-23T13:40:02.316Z,2.20
2023-02-23T13:42:48.656Z,1.90
2023-02-23T13:45:35.326Z,1.42
2023-02-23T13:48:02.575Z,2.05
2023-02-23T13:50:33.872Z,1.35
2023-02-23T13:53:04.989Z,1.15
2023-02-23T13:55:48.592Z,0.75
2023-02-23T13:58:18.577Z,0.35
2023-02-23T14:00:51.256Z,0.35
2023-02-23T14:03:22.324Z,0.50
2023-02-23T14:05:52.518Z,1.13
2023-02-23T14:08:37.247Z,0.88
2023-02-23T14:11:05.392Z,1.35
2023-02-23T14:13:34.085Z,0.40
2023-02-23T14:16:18.610Z,1.73
2023-02-23T14:18:55.346Z,1.05
2023-02-23T14:21:24.538Z,0.50
2023-02-23T14:24:03.245Z,2.15
2023-02-23T14:26:30.328Z,0.43
2023-02-23T14:29:16.884Z,1.70
2023-02-23T14:31:59.526Z,0.38
2023-02-23T14:34:43.601Z,0.85
2023-02-23T14:37:17.420Z,1.08
2023-02-23T14:39:44.576Z,0.98
2023-02-23T14:42:19.344Z,1.13
2023-02-23T14:44:51.459Z,0.70
2023-02-23T14:47:23.170Z,1.05
2023-02-23T14:49:50.220Z,0.40
2023-02-23T14:52:19.696Z,0.63
2023-02-23T14:54:47.099Z,0.52
2023-02-23T14:57:20.432Z,0.57
2023-02-23T14:59:52.673Z,0.22
2023-02-23T15:02:21.336Z,0.80
2023-02-23T15:04:48.683Z,0.90
2023-02-23T15:07:18.713Z,0.25
2023-02-23T15:09:47.292Z,0.93
2023-02-23T15:12:22.833Z,0.60
2023-02-23T15:14:50.501Z,0.88
2023-02-23T15:17:19.296Z,0.38
2023-02-23T15:19:47.498Z,2.70
2023-02-23T15:22:22.918Z,0.30
2023-02-23T15:24:50.362Z,0.82
2023-02-23T15:27:18.542Z,0.32
2023-02-23T15:29:45.834Z,0.60
2023-02-23T15:32:15.256Z,0.85
2023-02-23T15:34:42.473Z,0.77
2023-02-23T15:37:20.053Z,0.60
2023-02-23T15:39:56.864Z,0.95
2023-02-23T15:42:32.641Z,0.68
2023-02-23T15:45:03.840Z,1.10
2023-02-23T15:47:35.598Z,1.48
2023-02-23T15:50:09.110Z,0.88
2023-02-23T15:52:40.338Z,0.68
2023-02-23T15:55:08.722Z,0.70
2023-02-23T15:57:47.202Z,0.77
2023-02-23T16:00:32.319Z,1.80
2023-02-23T16:03:00.856Z,1.08
2023-02-23T16:05:32.562Z,0.55
2023-02-23T16:08:06.301Z,0.70
2023-02-23T16:10:45.492Z,1.00
2023-02-23T16:13:14.104Z,1.08
2023-02-23T16:15:41.841Z,0.60
2023-02-23T16:18:19.655Z,0.40
2023-02-23T16:20:48.382Z,0.88
2023-02-23T16:23:28.613Z,0.90
2023-02-23T16:26:01.572Z,1.33
2023-02-23T16:28:31.281Z,0.95
2023-02-23T16:31:03.095Z,0.75
2023-02-23T16:33:51.128Z,0.50
2023-02-23T16:36:23.688Z,1.35
2023-02-23T16:39:01.257Z,2.95
2023-02-23T16:41:30.356Z,1.85
2023-02-23T16:43:59.341Z,0.95
2023-02-23T16:46:28.815Z,0.45
2023-02-23T16:49:05.179Z,1.30
2023-02-23T16:51:34.661Z,0.70
2023-02-23T16:54:04.547Z,0.65
2023-02-23T16:56:31.893Z,1.45
2023-02-23T16:59:01.702Z,1.27
2023-02-23T17:01:29.005Z,1.15
2023-02-23T17:03:56.127Z,1.65
2023-02-23T17:06:23.561Z,1.15
2023-02-23T17:08:58.611Z,0.55
2023-02-23T17:11:26.011Z,1.15
2023-02-23T17:13:53.197Z,0.88
2023-02-23T17:16:20.712Z,0.70
2023-02-23T17:18:48.913Z,1.40
2023-02-23T17:21:23.042Z,1.38
2023-02-23T17:23:53.892Z,1.40
2023-02-23T17:26:23.598Z,0.43
2023-02-23T17:28:51.372Z,1.25
2023-02-23T17:31:20.493Z,0.95
2023-02-23T17:33:48.160Z,1.42
2023-02-23T17:36:16.328Z,1.95
2023-02-23T17:38:46.323Z,0.70
2023-02-23T17:41:15.858Z,1.02
2023-02-23T17:43:43.079Z,0.63
2023-02-23T17:46:12.243Z,1.27
2023-02-23T17:48:40.812Z,1.33
2023-02-23T17:51:09.684Z,2.20
2023-02-23T17:53:36.937Z,1.30
2023-02-23T17:56:04.411Z,0.85
2023-02-23T17:58:31.770Z,1.75
2023-02-23T18:01:00.234Z,1.15
2023-02-23T18:03:32.188Z,2.05
2023-02-23T18:06:00.367Z,1.33
2023-02-23T18:08:27.477Z,1.13
2023-02-23T18:10:55.443Z,0.63
2023-02-23T18:13:23.086Z,1.00
2023-02-23T18:15:51.535Z,0.90
2023-02-23T18:18:18.784Z,1.38
2023-02-23T18:20:50.416Z,1.17
2023-02-23T18:23:17.635Z,1.58
2023-02-23T18:25:44.917Z,1.27
2023-02-23T18:28:13.397Z,1.98
2023-02-23T18:30:40.902Z,1.52
2023-02-23T18:33:08.956Z,2.20
2023-02-23T18:35:37.716Z,0.93
2023-02-23T18:38:05.588Z,1.27
2023-02-23T18:40:32.988Z,1.50
2023-02-23T18:43:00.250Z,1.27
2023-02-23T18:45:27.996Z,0.95
2023-02-23T18:47:56.088Z,0.90
2023-02-23T18:50:26.136Z,1.00
2023-02-23T18:52:54.944Z,1.95
2023-02-23T18:55:22.379Z,2.28
2023-02-23T18:57:50.764Z,2.25
2023-02-23T19:00:18.554Z,1.98
2023-02-23T19:02:48.798Z,1.38
2023-02-23T19:05:16.933Z,1.15
2023-02-23T19:07:44.806Z,0.88
2023-02-23T19:10:14.417Z,1.50
2023-02-23T19:12:41.666Z,1.92
2023-02-23T19:15:09.653Z,0.82
2023-02-23T19:17:37.252Z,0.63
2023-02-23T19:20:08.060Z,0.82
2023-02-23T19:22:35.535Z,1.17
2023-02-23T19:25:03.591Z,0.28
2023-02-23T19:27:30.658Z,1.05
2023-02-23T19:29:57.777Z,1.05
2023-02-23T19:32:25.105Z,0.30
2023-02-23T19:34:52.373Z,0.90
2023-02-23T19:37:19.621Z,1.33
2023-02-23T19:39:46.749Z,0.38
2023-02-23T19:42:18.233Z,0.55
2023-02-23T19:44:45.439Z,0.55
2023-02-23T19:47:12.532Z,1.10
2023-02-23T19:49:39.767Z,1.05
2023-02-23T19:52:06.864Z,0.50
2023-02-23T19:54:37.858Z,0.22
2023-02-23T19:57:05.080Z,0.50
2023-02-23T19:59:32.303Z,1.20
2023-02-23T20:01:59.461Z,0.43
2023-02-23T20:04:28.281Z,0.60
2023-02-23T20:06:55.425Z,0.45
2023-02-23T20:09:22.661Z,1.80
2023-02-23T20:11:49.898Z,0.70
2023-02-23T20:14:17.194Z,1.85
2023-02-23T20:16:44.517Z,1.08
2023-02-23T20:19:11.910Z,0.40
2023-02-23T20:21:39.752Z,1.45
2023-02-23T20:24:07.128Z,0.80
2023-02-23T20:26:35.526Z,0.40
2023-02-23T20:29:03.369Z,0.43
2023-02-23T20:31:32.162Z,0.30
2023-02-23T20:34:01.453Z,0.57
2023-02-23T20:36:28.560Z,0.20
2023-02-23T20:38:55.631Z,1.58
2023-02-23T20:41:23.553Z,1.10
2023-02-23T20:43:51.642Z,1.23
2023-02-23T20:46:19.829Z,1.00
2023-02-23T20:48:49.050Z,0.20
2023-02-23T20:51:19.067Z,0.28
2023-02-23T20:53:47.073Z,1.55
2023-02-23T20:56:16.366Z,0.47
2023-02-23T20:58:43.641Z,1.35
2023-02-23T21:01:19.480Z,0.73
2023-02-23T21:03:47.055Z,0.20
2023-02-23T21:06:15.991Z,0.43
2023-02-23T21:08:49.995Z,0.40
2023-02-23T21:11:20.346Z,1.00
2023-02-23T21:13:47.772Z,1.10
2023-02-23T21:16:17.272Z,0.20
2023-02-23T21:18:44.951Z,0.75
2023-02-23T21:21:15.693Z,1.13
2023-02-23T21:23:48.722Z,0.68
2023-02-23T21:26:16.916Z,1.13
2023-02-23T21:28:45.041Z,0.95
2023-02-23T21:31:12.812Z,0.75
2023-02-23T21:33:41.011Z,0.30
2023-02-23T21:36:12.442Z,0.28
2023-02-23T21:38:40.852Z,0.60
2023-02-23T21:41:08.615Z,0.30
2023-02-23T21:43:39.362Z,0.15
2023-02-23T21:46:11.003Z,0.30
2023-02-23T21:48:38.138Z,1.50
2023-02-23T21:51:06.266Z,0.63
2023-02-23T21:53:33.901Z,0.20
2023-02-23T21:56:05.770Z,0.75
2023-02-23T21:58:33.047Z,0.63
2023-02-23T22:01:00.238Z,0.47
2023-02-23T22:03:29.308Z,0.63
2023-02-23T22:05:56.382Z,0.30
2023-02-23T22:08:23.541Z,0.15
2023-02-23T22:10:50.750Z,0.68
2023-02-23T22:13:17.856Z,0.68
2023-02-23T22:15:45.127Z,0.30
2023-02-23T22:18:14.990Z,0.30
2023-02-23T22:20:45.951Z,0.10
2023-02-23T22:23:14.004Z,0.68
2023-02-23T22:25:41.239Z,1.10
2023-02-23T22:28:10.628Z,0.93
2023-02-23T22:30:37.786Z,0.28
2023-02-23T22:33:05.039Z,0.13
2023-02-23T22:35:32.251Z,0.47
2023-02-23T22:38:01.687Z,0.10
2023-02-23T22:40:28.837Z,0.10
2023-02-23T22:42:55.902Z,0.20
2023-02-23T22:45:23.058Z,0.40
2023-02-23T22:47:50.264Z,1.00
2023-02-23T22:50:19.235Z,0.40
2023-02-23T22:52:47.179Z,0.60
2023-02-23T22:55:14.285Z,1.17
2023-02-23T22:57:41.369Z,0.15
2023-02-23T23:00:12.551Z,0.43
2023-02-23T23:02:39.726Z,1.33
2023-02-23T23:05:07.099Z,2.78
2023-02-23T23:07:34.332Z,1.05
2023-02-23T23:10:05.626Z,0.20
2023-02-23T23:12:34.343Z,0.30
2023-02-23T23:15:01.646Z,0.28
2023-02-23T23:17:29.508Z,0.10
2023-02-23T23:19:57.512Z,0.63
2023-02-23T23:22:25.280Z,1.27
2023-02-23T23:24:53.009Z,1.00
2023-02-23T23:27:21.520Z,0.70
2023-02-23T23:29:49.253Z,1.27
2023-02-23T23:32:17.576Z,0.38
2023-02-23T23:34:47.340Z,1.83
2023-02-23T23:37:18.398Z,0.80
2023-02-23T23:39:46.087Z,0.77
2023-02-23T23:42:13.243Z,0.40
2023-02-23T23:44:40.470Z,0.20
2023-02-23T23:47:08.132Z,0.55
2023-02-23T23:49:39.802Z,0.75
2023-02-23T23:52:07.139Z,0.57
2023-02-23T23:54:38.899Z,0.35
2023-02-23T23:57:06.266Z,0.10
2023-02-23T23:59:34.468Z,0.57
